Accueil
METAR-TAF:

METAR-TAF

Aéroports :

Beyrouth, Liban

latitude: 33-49N, longitude: 035-29E, altitude: 29 m

Observation

Le bulletin a été fait il y a 38 minutes, à 18:00 UTC
Vent 7 kt de ouest/sud-ouest
Température 20°C
Humidité 78%
Pression 1016 hPa
Visibilité: 7000 m
Nuages fragmentés à une hauteur de 2300 ft

METAR: OLBA 231800Z 25007KT 7000 BKN023 20/16 Q1016

Heure: 21:38 (18:38 UTC)

Prévision

Le bulletin a été fait il y a 2 heures et 38 minutes, à 16:00 UTC
Prévision valable du 23 à 18 UTC au 24 à 24 UTC
Vent 6 kt de sud avec des rafales jusqu'à 16 kt
Visibilité 10 km ou plus
Nuages épars à une hauteur de 2600 ft
Evoluant progressivement
du 24 à 06 UTC au 24 à 08 UTC
Vent 14 kt de ouest/sud-ouest
Quelques nuages à une hauteur de 2600 ft
Evoluant progressivement
du 24 à 20 UTC au 24 à 22 UTC
Vent 4 kt de sud/sud-est

TAF: OLBA 231600Z 2318/2424 17006G16KT 9999 SCT026 BECMG 2406/2408 25014KT FEW026 BECMG 2420/2422 15004KT

Observations et prévisions météorologiques de plus de 4000 aéroports (messages METAR et TAF).

Les stations disponibles sont représentées par des disques jaunes et rouges sur la carte.

Passer la souris dessus pour voir le nom de la station.

Cliquer dessus pour voir les observations et prévisions météorologiques.

Pour changer de carte: cliquez sur les boutons verts avec une croix noire pour zoomer, sur le bouton vert avec un tiret pour effectuer un zoom arrière, ou sur les flèches vertes pour les cartes adjacentes.


METAR-TAF: